Smolensk, Russia
Current Conditions -  °F | °C
As of 4:00 PM on Saturday 25 Oct 2014 (Local Time) from UMII Reporting Station
Clear Clear  
Wind Chill: 28°   Ceiling: Unl
Heat Index: 34°   Visibility: 6mi
Dew Point: 16°   Wind: 7mph
Humidity: 48%   Direction: 160°SSE
Pressure: 30.56"   Gusts: NA
Location:  54.78°N, 32.04°E
Report Text: UMII 251300Z 16003MPS CAVOK 01/M09 Q1035 NOSIG
Loading
Personal Weather Stations






























Interactive Weather Map
Tropical Storm Tracking
New forecast layout! Learn more

10-Day Weather Forecast

Advertisements
Track Severe Weather on mobile